createdAt,value
2023-07-06T00:02:26.224Z,94.60
2023-07-06T00:04:53.439Z,94.89
2023-07-06T00:07:22.563Z,95.60
2023-07-06T00:09:50.686Z,96.07
2023-07-06T00:12:20.213Z,96.73
2023-07-06T00:14:46.783Z,96.97
2023-07-06T00:17:15.538Z,97.04
2023-07-06T00:19:43.116Z,97.30
2023-07-06T00:22:12.116Z,97.67
2023-07-06T00:24:39.936Z,97.85
2023-07-06T00:27:06.730Z,98.20
2023-07-06T00:29:36.936Z,97.62
2023-07-06T00:32:28.067Z,97.67
2023-07-06T00:35:00.131Z,97.79
2023-07-06T00:37:27.787Z,98.04
2023-07-06T00:39:55.488Z,98.97
2023-07-06T00:42:24.000Z,99.08
2023-07-06T00:44:59.029Z,98.70
2023-07-06T00:47:38.262Z,98.84
2023-07-06T00:50:09.934Z,99.21
2023-07-06T00:52:41.062Z,99.20
2023-07-06T00:55:09.747Z,99.61
2023-07-06T00:57:39.953Z,99.66
2023-07-06T01:00:08.830Z,98.99
2023-07-06T01:02:40.166Z,98.83
2023-07-06T01:05:09.570Z,98.54
2023-07-06T01:07:39.123Z,98.40
2023-07-06T01:10:06.813Z,98.35
2023-07-06T01:12:34.321Z,98.32
2023-07-06T01:15:01.517Z,98.41
2023-07-06T01:17:40.471Z,98.32
2023-07-06T01:20:23.465Z,98.29
2023-07-06T01:23:08.544Z,98.19
2023-07-06T01:25:47.187Z,98.11
2023-07-06T01:28:38.997Z,98.15
2023-07-06T01:31:29.668Z,98.57
2023-07-06T01:34:25.810Z,98.65
2023-07-06T01:37:04.237Z,98.84
2023-07-06T01:39:30.743Z,98.61
2023-07-06T01:42:15.888Z,98.91
2023-07-06T01:44:48.297Z,99.06
2023-07-06T01:47:17.338Z,98.68
2023-07-06T01:49:44.522Z,98.82
2023-07-06T01:52:37.760Z,99.00
2023-07-06T01:55:22.219Z,98.82
2023-07-06T01:58:02.342Z,99.03
2023-07-06T02:00:32.015Z,99.28
2023-07-06T02:03:01.008Z,99.34
2023-07-06T02:05:29.007Z,99.73
2023-07-06T02:07:56.351Z,99.56
2023-07-06T02:10:23.605Z,99.71
2023-07-06T02:12:50.660Z,99.75
2023-07-06T02:15:20.906Z,100.00
2023-07-06T02:17:48.823Z,100.00
2023-07-06T02:20:17.711Z,99.92
2023-07-06T02:22:45.486Z,100.00
2023-07-06T02:25:13.008Z,99.52
2023-07-06T02:27:39.819Z,99.50
2023-07-06T02:30:07.146Z,99.23
2023-07-06T02:32:35.211Z,99.38
2023-07-06T02:35:03.831Z,99.02
2023-07-06T02:37:31.515Z,98.79
2023-07-06T02:40:00.037Z,98.31
2023-07-06T02:42:27.363Z,98.45
2023-07-06T02:44:55.143Z,98.77
2023-07-06T02:47:23.320Z,98.68
2023-07-06T02:49:49.996Z,98.90
2023-07-06T02:52:16.848Z,98.81
2023-07-06T02:54:43.737Z,98.65
2023-07-06T02:57:10.265Z,98.57
2023-07-06T02:59:36.877Z,98.96
2023-07-06T03:02:04.829Z,99.03
2023-07-06T03:04:33.162Z,99.05
2023-07-06T03:07:00.167Z,99.08
2023-07-06T03:09:30.784Z,99.19
2023-07-06T03:11:57.746Z,99.56
2023-07-06T03:14:25.925Z,99.68
2023-07-06T03:16:55.924Z,99.63
2023-07-06T03:19:22.805Z,99.70
2023-07-06T03:21:49.574Z,99.79
2023-07-06T03:24:16.504Z,100.00
2023-07-06T03:26:44.965Z,99.98
2023-07-06T03:29:14.863Z,100.00
2023-07-06T03:31:42.331Z,99.90
2023-07-06T03:34:08.990Z,99.86
2023-07-06T03:36:36.590Z,99.88
2023-07-06T03:39:03.647Z,99.67
2023-07-06T03:41:30.321Z,99.68
2023-07-06T03:44:00.534Z,99.93
2023-07-06T03:46:35.869Z,99.61
2023-07-06T03:49:04.741Z,99.57
2023-07-06T03:51:32.914Z,99.53
2023-07-06T03:54:00.370Z,99.60
2023-07-06T03:56:29.760Z,99.63
2023-07-06T03:58:57.896Z,99.44
2023-07-06T04:01:28.780Z,99.53
2023-07-06T04:03:57.725Z,99.43
2023-07-06T04:06:30.012Z,99.58
2023-07-06T04:09:00.750Z,99.57
2023-07-06T04:11:27.530Z,99.82
2023-07-06T04:14:00.370Z,99.56
2023-07-06T04:16:28.451Z,99.72
2023-07-06T04:18:55.221Z,99.85
2023-07-06T04:21:23.440Z,99.66
2023-07-06T04:23:50.548Z,99.63
2023-07-06T04:26:19.235Z,99.52
2023-07-06T04:28:46.303Z,99.34
2023-07-06T04:31:16.028Z,99.27
2023-07-06T04:33:44.857Z,98.96
2023-07-06T04:36:11.591Z,99.06
2023-07-06T04:38:38.669Z,98.65
2023-07-06T04:41:06.211Z,98.68
2023-07-06T04:43:32.896Z,98.30
2023-07-06T04:45:59.741Z,98.28
2023-07-06T04:48:27.689Z,98.18
2023-07-06T04:50:55.597Z,98.38
2023-07-06T04:53:23.335Z,98.55
2023-07-06T04:55:52.082Z,98.40
2023-07-06T04:58:19.688Z,98.02
2023-07-06T05:00:47.269Z,98.54
2023-07-06T05:03:14.671Z,98.46
2023-07-06T05:05:47.099Z,98.29
2023-07-06T05:08:17.066Z,98.32
2023-07-06T05:10:52.029Z,98.23
2023-07-06T05:13:21.723Z,98.07
2023-07-06T05:15:50.088Z,98.01
2023-07-06T05:18:21.694Z,97.74
2023-07-06T05:20:51.280Z,97.58
2023-07-06T05:23:19.646Z,97.35
2023-07-06T05:25:46.443Z,96.40
2023-07-06T05:28:12.988Z,95.66
2023-07-06T05:30:40.794Z,95.22
2023-07-06T05:33:07.632Z,94.03
2023-07-06T05:35:34.191Z,92.11
2023-07-06T05:38:01.464Z,92.08
2023-07-06T05:40:28.565Z,83.06
2023-07-06T05:42:56.122Z,74.89
2023-07-06T05:45:22.784Z,69.33
2023-07-06T05:47:49.549Z,64.55
2023-07-06T05:50:16.144Z,62.20
2023-07-06T05:52:42.869Z,58.80
2023-07-06T05:55:10.490Z,61.27
2023-07-06T05:57:37.301Z,64.66
2023-07-06T06:00:11.057Z,67.39
2023-07-06T06:02:39.152Z,70.70
2023-07-06T06:05:06.896Z,72.75
2023-07-06T06:07:34.636Z,73.77
2023-07-06T06:10:04.307Z,74.22
2023-07-06T06:12:32.864Z,75.50
2023-07-06T06:14:59.990Z,75.31
2023-07-06T06:17:29.554Z,73.20
2023-07-06T06:19:56.340Z,74.32
2023-07-06T06:22:23.726Z,73.70
2023-07-06T06:24:50.443Z,74.76
2023-07-06T06:27:18.873Z,73.95
2023-07-06T06:29:45.497Z,74.77
2023-07-06T06:32:13.173Z,75.26
2023-07-06T06:34:41.194Z,76.15
2023-07-06T06:37:09.362Z,77.04
2023-07-06T06:39:36.304Z,78.53
2023-07-06T06:42:04.060Z,78.37
2023-07-06T06:44:31.958Z,77.23
2023-07-06T06:47:03.448Z,76.81
2023-07-06T06:49:34.435Z,74.69
2023-07-06T06:52:05.521Z,75.46
2023-07-06T06:54:33.187Z,76.21
2023-07-06T06:56:59.986Z,69.79
2023-07-06T06:59:26.963Z,66.47
2023-07-06T07:01:55.813Z,65.32
2023-07-06T07:04:23.472Z,66.02
2023-07-06T07:06:50.110Z,69.16
2023-07-06T07:09:19.247Z,64.84
2023-07-06T07:11:46.315Z,63.08
2023-07-06T07:14:15.410Z,60.67
2023-07-06T07:16:42.261Z,60.77
2023-07-06T07:19:09.848Z,61.07
2023-07-06T07:21:37.287Z,61.22
2023-07-06T07:24:04.319Z,61.75
2023-07-06T07:26:31.125Z,60.44
2023-07-06T07:28:58.295Z,58.40
2023-07-06T07:31:26.788Z,56.24
2023-07-06T07:33:54.147Z,57.75
2023-07-06T07:36:21.697Z,57.82
2023-07-06T07:38:50.254Z,61.36
2023-07-06T07:41:20.787Z,62.08
2023-07-06T07:43:50.346Z,62.80
2023-07-06T07:46:19.788Z,62.78
2023-07-06T07:48:48.401Z,59.09
2023-07-06T07:51:18.470Z,57.65
2023-07-06T07:53:45.855Z,56.37
2023-07-06T07:56:16.779Z,55.19
2023-07-06T07:58:46.622Z,55.25
2023-07-06T08:01:14.645Z,58.58
2023-07-06T08:03:41.621Z,55.78
2023-07-06T08:06:10.384Z,54.81
2023-07-06T08:08:39.332Z,51.79
2023-07-06T08:11:08.578Z,55.33
2023-07-06T08:13:36.217Z,52.52
2023-07-06T08:16:04.993Z,51.53
2023-07-06T08:18:32.240Z,49.75
2023-07-06T08:21:36.880Z,52.34
2023-07-06T08:23:49.397Z,50.82
2023-07-06T08:26:16.620Z,52.34
2023-07-06T08:28:43.544Z,52.45
2023-07-06T08:31:20.991Z,51.57
2023-07-06T08:33:49.190Z,52.73
2023-07-06T08:36:17.408Z,51.57
2023-07-06T08:38:44.989Z,52.52
2023-07-06T08:41:32.612Z,53.68
2023-07-06T08:44:01.079Z,50.30
2023-07-06T08:46:33.437Z,53.99
2023-07-06T08:49:01.720Z,53.51
2023-07-06T08:51:35.836Z,56.13
2023-07-06T08:54:11.366Z,56.23
2023-07-06T08:56:37.968Z,54.99
2023-07-06T08:59:14.304Z,53.88
2023-07-06T09:01:43.258Z,55.85
2023-07-06T09:04:20.240Z,52.85
2023-07-06T09:06:55.024Z,52.86
2023-07-06T09:09:22.170Z,50.47
2023-07-06T09:11:51.881Z,53.18
2023-07-06T09:14:21.219Z,49.98
2023-07-06T09:16:58.584Z,50.02
2023-07-06T09:19:26.683Z,50.38
2023-07-06T09:21:59.522Z,48.96
2023-07-06T09:24:28.785Z,51.18
2023-07-06T09:27:00.208Z,48.61
2023-07-06T09:29:33.655Z,49.52
2023-07-06T09:32:14.163Z,53.31
2023-07-06T09:34:48.021Z,51.50
2023-07-06T09:37:16.184Z,50.04
2023-07-06T09:39:42.988Z,49.03
2023-07-06T09:42:16.613Z,48.55
2023-07-06T09:44:43.234Z,48.30
2023-07-06T09:47:14.415Z,49.23
2023-07-06T09:49:56.448Z,48.99
2023-07-06T09:52:23.989Z,50.22
2023-07-06T09:55:15.163Z,49.62
2023-07-06T09:57:41.763Z,51.20
2023-07-06T10:00:18.502Z,51.57
2023-07-06T10:03:01.189Z,52.34
2023-07-06T10:05:53.671Z,53.76
2023-07-06T10:08:25.911Z,52.82
2023-07-06T10:11:17.805Z,54.06
2023-07-06T10:14:06.497Z,54.58
2023-07-06T10:16:48.916Z,53.57
2023-07-06T10:19:21.611Z,54.71
2023-07-06T10:22:22.410Z,55.51
2023-07-06T10:24:54.846Z,55.57
2023-07-06T10:27:27.673Z,55.49
2023-07-06T10:29:59.736Z,54.89
2023-07-06T10:32:34.185Z,55.71
2023-07-06T10:35:32.429Z,57.31
2023-07-06T10:38:02.189Z,56.37
2023-07-06T10:40:30.346Z,58.25
2023-07-06T10:43:14.278Z,59.07
2023-07-06T10:45:47.261Z,59.64
2023-07-06T10:48:22.995Z,59.95
2023-07-06T10:51:05.411Z,60.61
2023-07-06T10:53:43.721Z,61.81
2023-07-06T10:56:13.290Z,62.88
2023-07-06T10:58:58.405Z,64.01
2023-07-06T11:01:33.580Z,65.07
2023-07-06T11:04:02.503Z,65.64
2023-07-06T11:06:55.439Z,65.86
2023-07-06T11:09:22.541Z,65.89
2023-07-06T11:11:49.186Z,66.36
2023-07-06T11:14:32.212Z,67.13
2023-07-06T11:17:03.967Z,67.16
2023-07-06T11:19:35.708Z,66.47
2023-07-06T11:22:07.021Z,67.58
2023-07-06T11:24:46.006Z,67.83
2023-07-06T11:27:26.497Z,66.15
2023-07-06T11:29:55.571Z,66.94
2023-07-06T11:32:33.767Z,65.60
2023-07-06T11:35:25.306Z,64.40
2023-07-06T11:38:20.695Z,63.89
2023-07-06T11:41:18.145Z,63.80
2023-07-06T11:44:03.301Z,63.64
2023-07-06T11:49:49.238Z,61.46
2023-07-06T11:52:26.048Z,59.42
2023-07-06T11:55:19.917Z,59.14
2023-07-06T11:58:30.081Z,54.99
2023-07-06T12:01:11.632Z,53.19
2023-07-06T12:03:39.025Z,52.95
2023-07-06T12:06:05.712Z,50.65
2023-07-06T12:08:38.966Z,52.52
2023-07-06T12:11:10.851Z,49.27
2023-07-06T12:13:42.446Z,51.22
2023-07-06T12:16:20.475Z,51.91
2023-07-06T12:18:56.958Z,51.62
2023-07-06T12:21:54.098Z,51.50
2023-07-06T12:24:24.319Z,48.53
2023-07-06T12:26:57.206Z,49.60
2023-07-06T12:29:28.473Z,50.57
2023-07-06T12:32:02.136Z,50.78
2023-07-06T12:34:34.076Z,50.77
2023-07-06T12:37:03.871Z,51.17
2023-07-06T12:39:39.689Z,50.01
2023-07-06T12:42:08.120Z,49.23
2023-07-06T12:44:35.161Z,50.23
2023-07-06T12:47:19.351Z,50.75
2023-07-06T12:49:48.453Z,47.42
2023-07-06T12:52:15.054Z,46.16
2023-07-06T12:54:50.312Z,47.57
2023-07-06T12:57:26.588Z,46.09
2023-07-06T12:59:58.086Z,44.96
2023-07-06T13:02:31.390Z,45.40
2023-07-06T13:04:58.807Z,44.61
2023-07-06T13:07:29.510Z,45.29
2023-07-06T13:09:56.476Z,41.90
2023-07-06T13:12:25.995Z,41.12
2023-07-06T13:14:53.556Z,42.13
2023-07-06T13:17:27.141Z,40.03
2023-07-06T13:19:55.590Z,41.22
2023-07-06T13:22:22.729Z,39.33
2023-07-06T13:24:49.451Z,40.97
2023-07-06T13:27:18.239Z,43.51
2023-07-06T13:29:46.485Z,44.48
2023-07-06T13:32:19.154Z,39.81
2023-07-06T13:34:48.115Z,37.28
2023-07-06T13:37:25.995Z,41.20
2023-07-06T13:39:53.033Z,40.63
2023-07-06T13:42:22.823Z,40.53
2023-07-06T13:44:50.597Z,40.18
2023-07-06T13:47:20.122Z,42.26
2023-07-06T13:49:51.859Z,41.26
2023-07-06T13:52:21.182Z,40.46
2023-07-06T13:54:47.903Z,37.68
2023-07-06T13:57:14.531Z,38.73
2023-07-06T13:59:41.325Z,38.27
2023-07-06T14:02:14.768Z,38.39
2023-07-06T14:04:43.674Z,37.64
2023-07-06T14:07:11.338Z,40.01
2023-07-06T14:09:38.158Z,42.26
2023-07-06T14:12:06.497Z,43.12
2023-07-06T14:14:33.274Z,39.78
2023-07-06T14:16:59.963Z,37.29
2023-07-06T14:19:26.568Z,37.43
2023-07-06T14:21:53.452Z,37.76
2023-07-06T14:24:22.922Z,38.61
2023-07-06T14:26:49.794Z,39.76
2023-07-06T14:29:17.424Z,41.43
2023-07-06T14:31:48.878Z,38.34
2023-07-06T14:34:17.129Z,35.57
2023-07-06T14:36:43.622Z,37.98
2023-07-06T14:39:10.515Z,38.69
2023-07-06T14:41:37.241Z,39.86
2023-07-06T14:44:04.116Z,38.03
2023-07-06T14:46:31.309Z,38.73
2023-07-06T14:48:57.872Z,38.33
2023-07-06T14:51:24.436Z,37.41
2023-07-06T14:53:52.723Z,38.25
2023-07-06T14:56:22.618Z,39.15
2023-07-06T14:58:50.248Z,39.30
2023-07-06T15:01:16.898Z,37.80
2023-07-06T15:03:43.702Z,36.87
2023-07-06T15:06:12.065Z,38.84
2023-07-06T15:08:38.860Z,38.28
2023-07-06T15:11:05.444Z,36.58
2023-07-06T15:13:32.222Z,35.15
2023-07-06T15:15:59.288Z,35.15
2023-07-06T15:18:26.613Z,37.11
2023-07-06T15:21:10.517Z,38.54
2023-07-06T15:23:38.769Z,39.34
2023-07-06T15:26:05.825Z,37.94
2023-07-06T15:28:32.663Z,37.75
2023-07-06T15:30:59.406Z,36.37
2023-07-06T15:33:26.083Z,35.75
2023-07-06T15:35:52.703Z,36.08
2023-07-06T15:38:19.245Z,37.81
2023-07-06T15:40:47.966Z,36.96
2023-07-06T15:43:16.179Z,36.32
2023-07-06T15:45:44.700Z,36.08
2023-07-06T15:48:11.439Z,37.16
2023-07-06T15:50:39.534Z,38.27
2023-07-06T15:53:08.422Z,39.36
2023-07-06T15:55:36.354Z,38.88
2023-07-06T15:58:03.518Z,37.50
2023-07-06T16:00:30.120Z,37.59
2023-07-06T16:02:57.564Z,37.67
2023-07-06T16:05:24.967Z,37.94
2023-07-06T16:07:51.870Z,37.57
2023-07-06T16:10:18.818Z,38.17
2023-07-06T16:12:45.855Z,41.27
2023-07-06T16:15:12.953Z,39.50
2023-07-06T16:17:40.341Z,36.16
2023-07-06T16:20:08.081Z,36.11
2023-07-06T16:22:35.353Z,36.94
2023-07-06T16:25:02.127Z,37.70
2023-07-06T16:27:28.775Z,37.75
2023-07-06T16:29:55.379Z,40.28
2023-07-06T16:32:22.137Z,39.69
2023-07-06T16:34:48.755Z,41.94
2023-07-06T16:37:18.255Z,42.21
2023-07-06T16:39:44.882Z,40.32
2023-07-06T16:42:11.772Z,39.78
2023-07-06T16:44:38.493Z,40.80
2023-07-06T16:47:05.358Z,40.72
2023-07-06T16:49:32.453Z,41.48
2023-07-06T16:51:59.211Z,42.56
2023-07-06T16:54:25.922Z,41.46
2023-07-06T16:56:52.779Z,40.74
2023-07-06T16:59:19.547Z,42.30
2023-07-06T17:01:49.276Z,39.74
2023-07-06T17:04:16.179Z,41.20
2023-07-06T17:06:42.790Z,40.80
2023-07-06T17:09:09.373Z,40.48
2023-07-06T17:11:36.053Z,42.95
2023-07-06T17:14:02.887Z,40.36
2023-07-06T17:16:29.948Z,40.71
2023-07-06T17:18:56.445Z,39.40
2023-07-06T17:21:23.071Z,41.39
2023-07-06T17:23:49.672Z,41.22
2023-07-06T17:26:16.119Z,41.50
2023-07-06T17:28:42.635Z,41.71
2023-07-06T17:31:15.025Z,41.66
2023-07-06T17:33:41.803Z,41.81
2023-07-06T17:36:09.672Z,41.27
2023-07-06T17:38:37.264Z,39.48
2023-07-06T17:41:06.857Z,40.57
2023-07-06T17:43:34.471Z,41.30
2023-07-06T17:46:01.870Z,41.56
2023-07-06T17:48:29.431Z,42.07
2023-07-06T17:51:00.387Z,42.49
2023-07-06T17:53:27.084Z,41.54
2023-07-06T17:55:53.584Z,42.23
2023-07-06T17:58:21.826Z,40.82
2023-07-06T18:00:51.433Z,40.95
2023-07-06T18:03:19.019Z,41.44
2023-07-06T18:05:47.282Z,42.60
2023-07-06T18:08:14.283Z,42.67
2023-07-06T18:10:40.993Z,43.21
2023-07-06T18:13:08.667Z,43.24
2023-07-06T18:15:35.924Z,43.38
2023-07-06T18:18:03.822Z,44.66
2023-07-06T18:20:30.647Z,45.81
2023-07-06T18:22:57.229Z,45.20
2023-07-06T18:25:24.307Z,46.66
2023-07-06T18:27:51.207Z,46.70
2023-07-06T18:30:17.884Z,47.46
2023-07-06T18:32:44.650Z,46.17
2023-07-06T18:35:11.418Z,47.06
2023-07-06T18:37:38.150Z,48.01
2023-07-06T18:40:05.184Z,46.96
2023-07-06T18:42:31.851Z,48.27
2023-07-06T18:45:05.151Z,49.17
2023-07-06T18:47:31.703Z,49.92
2023-07-06T18:49:58.371Z,51.22
2023-07-06T18:52:26.676Z,51.70
2023-07-06T18:54:53.720Z,52.98
2023-07-06T18:57:23.340Z,53.10
2023-07-06T18:59:50.588Z,54.47
2023-07-06T19:02:17.676Z,55.76
2023-07-06T19:04:45.134Z,55.81
2023-07-06T19:07:13.205Z,56.11
2023-07-06T19:09:40.510Z,56.82
2023-07-06T19:12:08.478Z,57.34
2023-07-06T19:14:35.250Z,58.56
2023-07-06T19:17:01.986Z,58.46
2023-07-06T19:19:28.994Z,59.62
2023-07-06T19:21:56.126Z,60.44
2023-07-06T19:24:23.038Z,60.41
2023-07-06T19:26:49.893Z,60.52
2023-07-06T19:29:21.083Z,61.05
2023-07-06T19:31:50.441Z,61.27
2023-07-06T19:34:20.406Z,62.18
2023-07-06T19:36:46.930Z,62.43
2023-07-06T19:39:13.828Z,62.65
2023-07-06T19:41:40.598Z,62.83
2023-07-06T19:44:07.175Z,63.37
2023-07-06T19:46:33.894Z,63.78
2023-07-06T19:49:00.624Z,63.81
2023-07-06T19:51:27.095Z,64.31
2023-07-06T19:53:53.639Z,65.03
2023-07-06T19:56:22.408Z,65.54
2023-07-06T19:58:49.280Z,65.72
2023-07-06T20:01:20.204Z,66.32
2023-07-06T20:03:46.910Z,66.91
2023-07-06T20:06:14.110Z,67.12
2023-07-06T20:08:40.617Z,67.37
2023-07-06T20:11:07.168Z,67.92
2023-07-06T20:13:35.857Z,68.04
2023-07-06T20:16:04.588Z,68.49
2023-07-06T20:18:31.198Z,68.74
2023-07-06T20:20:57.910Z,69.49
2023-07-06T20:23:24.806Z,68.95
2023-07-06T20:25:51.412Z,69.80
2023-07-06T20:28:18.160Z,69.51
2023-07-06T20:30:46.602Z,70.30
2023-07-06T20:33:13.166Z,70.72
2023-07-06T20:35:43.052Z,70.89
2023-07-06T20:38:10.001Z,71.20
2023-07-06T20:40:36.939Z,71.53
2023-07-06T20:43:04.352Z,71.78
2023-07-06T20:45:32.505Z,71.71
2023-07-06T20:48:01.251Z,72.08
2023-07-06T20:50:28.004Z,72.21
2023-07-06T20:52:54.407Z,72.43
2023-07-06T20:55:20.860Z,72.13
2023-07-06T20:57:48.531Z,72.41
2023-07-06T21:00:15.069Z,72.80
2023-07-06T21:02:41.618Z,72.93
2023-07-06T21:05:08.377Z,72.95
2023-07-06T21:07:35.056Z,73.21
2023-07-06T21:10:01.733Z,73.70
2023-07-06T21:12:28.185Z,73.75
2023-07-06T21:14:54.621Z,73.44
2023-07-06T21:17:21.294Z,73.61
2023-07-06T21:19:47.768Z,73.70
2023-07-06T21:22:14.269Z,74.22
2023-07-06T21:24:41.006Z,74.19
2023-07-06T21:27:07.845Z,74.69
2023-07-06T21:29:34.280Z,74.76
2023-07-06T21:32:01.027Z,75.00
2023-07-06T21:34:27.502Z,74.99
2023-07-06T21:36:54.003Z,75.23
2023-07-06T21:39:24.697Z,75.17
2023-07-06T21:41:51.965Z,75.31
2023-07-06T21:44:18.680Z,75.66
2023-07-06T21:46:45.346Z,75.63
2023-07-06T21:49:11.953Z,75.94
2023-07-06T21:51:38.486Z,76.14
2023-07-06T21:54:04.965Z,76.42
2023-07-06T21:56:31.726Z,76.39
2023-07-06T21:58:58.472Z,76.90
2023-07-06T22:01:25.424Z,77.21
2023-07-06T22:03:52.236Z,77.54
2023-07-06T22:06:21.308Z,77.56
2023-07-06T22:08:49.278Z,76.92
2023-07-06T22:11:20.036Z,77.12
2023-07-06T22:13:48.398Z,77.50
2023-07-06T22:16:15.479Z,77.92
2023-07-06T22:18:42.859Z,77.86
2023-07-06T22:21:09.901Z,77.63
2023-07-06T22:23:37.563Z,77.68
2023-07-06T22:26:06.903Z,77.43
2023-07-06T22:28:34.194Z,78.12
2023-07-06T22:31:03.521Z,78.22
2023-07-06T22:33:35.719Z,77.64
2023-07-06T22:36:02.894Z,77.56
2023-07-06T22:38:29.425Z,77.99
2023-07-06T22:40:55.913Z,78.27
2023-07-06T22:43:22.634Z,77.86
2023-07-06T22:45:49.321Z,78.18
2023-07-06T22:48:19.339Z,78.31
2023-07-06T22:50:45.993Z,78.33
2023-07-06T22:53:13.127Z,78.73
2023-07-06T22:55:39.820Z,78.56
2023-07-06T22:58:07.490Z,79.04
2023-07-06T23:00:37.772Z,79.16
2023-07-06T23:03:04.842Z,78.88
2023-07-06T23:05:31.456Z,78.92
2023-07-06T23:07:58.215Z,78.56
2023-07-06T23:10:30.714Z,78.59
2023-07-06T23:12:57.963Z,78.70
2023-07-06T23:15:27.038Z,78.82
2023-07-06T23:17:53.802Z,79.18
2023-07-06T23:20:21.754Z,78.91
2023-07-06T23:22:48.697Z,79.03
2023-07-06T23:25:17.616Z,79.68
2023-07-06T23:27:46.340Z,79.34
2023-07-06T23:30:19.188Z,79.34
2023-07-06T23:32:49.718Z,79.42
2023-07-06T23:35:21.106Z,79.43
2023-07-06T23:37:50.134Z,79.48
2023-07-06T23:40:22.428Z,79.59
2023-07-06T23:42:49.482Z,79.83
2023-07-06T23:45:16.432Z,80.02
2023-07-06T23:47:43.005Z,79.84
2023-07-06T23:50:10.797Z,80.19
2023-07-06T23:52:37.537Z,80.05
2023-07-06T23:55:04.333Z,80.33
2023-07-06T23:57:30.905Z,80.08
2023-07-06T23:59:57.540Z,80.94
